sensor_id;sensor_type;location;lat;lon;timestamp;P1;durP1;ratioP1;P2;durP2;ratioP2
2674;SDS011;1347;42.122;24.746;2023-05-29T00:00:28;12.13;;;7.90;;
2674;SDS011;1347;42.122;24.746;2023-05-29T00:02:55;7.73;;;7.03;;
2674;SDS011;1347;42.122;24.746;2023-05-29T00:05:22;10.20;;;6.77;;
2674;SDS011;1347;42.122;24.746;2023-05-29T00:07:49;15.47;;;6.80;;
2674;SDS011;1347;42.122;24.746;2023-05-29T00:10:16;8.03;;;7.00;;
2674;SDS011;1347;42.122;24.746;2023-05-29T00:12:44;8.43;;;7.33;;
2674;SDS011;1347;42.122;24.746;2023-05-29T00:15:11;9.60;;;6.67;;
2674;SDS011;1347;42.122;24.746;2023-05-29T00:17:38;8.53;;;7.03;;
2674;SDS011;1347;42.122;24.746;2023-05-29T00:20:06;7.33;;;6.63;;
2674;SDS011;1347;42.122;24.746;2023-05-29T00:22:34;8.60;;;7.50;;
2674;SDS011;1347;42.122;24.746;2023-05-29T00:25:02;10.30;;;7.60;;
2674;SDS011;1347;42.122;24.746;2023-05-29T00:27:30;8.53;;;7.67;;
2674;SDS011;1347;42.122;24.746;2023-05-29T00:29:59;9.80;;;8.23;;
2674;SDS011;1347;42.122;24.746;2023-05-29T00:32:26;9.13;;;7.87;;
2674;SDS011;1347;42.122;24.746;2023-05-29T00:34:53;11.20;;;8.53;;
2674;SDS011;1347;42.122;24.746;2023-05-29T00:37:20;9.80;;;8.27;;
2674;SDS011;1347;42.122;24.746;2023-05-29T00:39:47;9.30;;;8.37;;
2674;SDS011;1347;42.122;24.746;2023-05-29T00:42:14;8.87;;;7.90;;
2674;SDS011;1347;42.122;24.746;2023-05-29T00:44:41;8.40;;;7.60;;
2674;SDS011;1347;42.122;24.746;2023-05-29T00:47:09;8.30;;;7.50;;
2674;SDS011;1347;42.122;24.746;2023-05-29T00:49:37;8.30;;;7.50;;
2674;SDS011;1347;42.122;24.746;2023-05-29T00:52:04;11.10;;;7.33;;
2674;SDS011;1347;42.122;24.746;2023-05-29T00:54:33;12.73;;;7.17;;
2674;SDS011;1347;42.122;24.746;2023-05-29T00:57:02;9.20;;;8.33;;
2674;SDS011;1347;42.122;24.746;2023-05-29T00:59:31;12.90;;;7.07;;
2674;SDS011;1347;42.122;24.746;2023-05-29T01:02:00;10.07;;;7.13;;
2674;SDS011;1347;42.122;24.746;2023-05-29T01:04:30;10.70;;;7.10;;
2674;SDS011;1347;42.122;24.746;2023-05-29T01:06:59;10.40;;;7.30;;
2674;SDS011;1347;42.122;24.746;2023-05-29T01:09:27;9.93;;;6.20;;
2674;SDS011;1347;42.122;24.746;2023-05-29T01:11:57;8.90;;;6.43;;
2674;SDS011;1347;42.122;24.746;2023-05-29T01:14:32;8.03;;;7.30;;
2674;SDS011;1347;42.122;24.746;2023-05-29T01:17:07;7.60;;;6.80;;
2674;SDS011;1347;42.122;24.746;2023-05-29T01:22:35;6.80;;;6.20;;
2674;SDS011;1347;42.122;24.746;2023-05-29T01:25:18;7.13;;;6.20;;
2674;SDS011;1347;42.122;24.746;2023-05-29T01:27:51;7.93;;;6.13;;
2674;SDS011;1347;42.122;24.746;2023-05-29T01:30:20;7.03;;;6.33;;
2674;SDS011;1347;42.122;24.746;2023-05-29T01:32:50;7.90;;;5.70;;
2674;SDS011;1347;42.122;24.746;2023-05-29T01:35:18;12.30;;;6.30;;
2674;SDS011;1347;42.122;24.746;2023-05-29T01:37:45;8.10;;;5.60;;
2674;SDS011;1347;42.122;24.746;2023-05-29T01:40:12;9.23;;;5.60;;
2674;SDS011;1347;42.122;24.746;2023-05-29T01:42:39;8.30;;;6.67;;
2674;SDS011;1347;42.122;24.746;2023-05-29T01:45:08;9.20;;;6.30;;
2674;SDS011;1347;42.122;24.746;2023-05-29T01:47:37;6.70;;;5.43;;
2674;SDS011;1347;42.122;24.746;2023-05-29T01:50:05;7.37;;;6.17;;
2674;SDS011;1347;42.122;24.746;2023-05-29T01:52:33;8.07;;;6.53;;
2674;SDS011;1347;42.122;24.746;2023-05-29T01:55:00;13.33;;;5.70;;
2674;SDS011;1347;42.122;24.746;2023-05-29T01:57:27;7.87;;;6.50;;
2674;SDS011;1347;42.122;24.746;2023-05-29T01:59:54;7.90;;;6.13;;
2674;SDS011;1347;42.122;24.746;2023-05-29T02:02:23;6.90;;;5.80;;
2674;SDS011;1347;42.122;24.746;2023-05-29T02:04:50;8.60;;;6.70;;
2674;SDS011;1347;42.122;24.746;2023-05-29T02:07:17;6.47;;;5.87;;
2674;SDS011;1347;42.122;24.746;2023-05-29T02:09:44;6.40;;;5.80;;
2674;SDS011;1347;42.122;24.746;2023-05-29T02:12:11;7.20;;;5.87;;
2674;SDS011;1347;42.122;24.746;2023-05-29T02:14:38;11.20;;;6.60;;
2674;SDS011;1347;42.122;24.746;2023-05-29T02:17:05;6.93;;;6.27;;
2674;SDS011;1347;42.122;24.746;2023-05-29T02:19:33;9.60;;;7.00;;
2674;SDS011;1347;42.122;24.746;2023-05-29T02:22:01;7.67;;;5.57;;
2674;SDS011;1347;42.122;24.746;2023-05-29T02:24:28;8.00;;;5.50;;
2674;SDS011;1347;42.122;24.746;2023-05-29T02:26:55;8.50;;;5.67;;
2674;SDS011;1347;42.122;24.746;2023-05-29T02:29:22;6.93;;;5.30;;
2674;SDS011;1347;42.122;24.746;2023-05-29T02:31:49;8.93;;;6.77;;
2674;SDS011;1347;42.122;24.746;2023-05-29T02:34:16;7.00;;;6.03;;
2674;SDS011;1347;42.122;24.746;2023-05-29T02:36:44;9.00;;;6.53;;
2674;SDS011;1347;42.122;24.746;2023-05-29T02:39:11;8.83;;;6.17;;
2674;SDS011;1347;42.122;24.746;2023-05-29T02:41:38;9.30;;;5.67;;
2674;SDS011;1347;42.122;24.746;2023-05-29T02:44:04;11.20;;;5.83;;
2674;SDS011;1347;42.122;24.746;2023-05-29T02:46:31;7.23;;;6.53;;
2674;SDS011;1347;42.122;24.746;2023-05-29T02:48:58;9.10;;;6.20;;
2674;SDS011;1347;42.122;24.746;2023-05-29T02:51:25;7.43;;;6.73;;
2674;SDS011;1347;42.122;24.746;2023-05-29T02:53:54;10.53;;;7.47;;
2674;SDS011;1347;42.122;24.746;2023-05-29T02:56:20;11.17;;;6.47;;
2674;SDS011;1347;42.122;24.746;2023-05-29T02:58:49;11.00;;;7.97;;
2674;SDS011;1347;42.122;24.746;2023-05-29T03:01:15;11.40;;;7.80;;
2674;SDS011;1347;42.122;24.746;2023-05-29T03:03:42;9.17;;;7.13;;
2674;SDS011;1347;42.122;24.746;2023-05-29T03:06:09;8.23;;;6.80;;
2674;SDS011;1347;42.122;24.746;2023-05-29T03:08:37;7.03;;;6.43;;
2674;SDS011;1347;42.122;24.746;2023-05-29T03:11:06;9.53;;;6.40;;
2674;SDS011;1347;42.122;24.746;2023-05-29T03:13:34;7.60;;;6.90;;
2674;SDS011;1347;42.122;24.746;2023-05-29T03:16:01;10.60;;;7.60;;
2674;SDS011;1347;42.122;24.746;2023-05-29T03:18:28;8.17;;;7.40;;
2674;SDS011;1347;42.122;24.746;2023-05-29T03:20:55;9.47;;;8.07;;
2674;SDS011;1347;42.122;24.746;2023-05-29T03:23:22;12.50;;;8.83;;
2674;SDS011;1347;42.122;24.746;2023-05-29T03:25:49;10.37;;;9.00;;
2674;SDS011;1347;42.122;24.746;2023-05-29T03:28:17;9.70;;;8.77;;
2674;SDS011;1347;42.122;24.746;2023-05-29T03:30:44;9.53;;;8.60;;
2674;SDS011;1347;42.122;24.746;2023-05-29T03:33:11;9.60;;;8.60;;
2674;SDS011;1347;42.122;24.746;2023-05-29T03:35:38;9.33;;;8.43;;
2674;SDS011;1347;42.122;24.746;2023-05-29T03:38:05;13.00;;;8.90;;
2674;SDS011;1347;42.122;24.746;2023-05-29T03:40:32;8.83;;;7.40;;
2674;SDS011;1347;42.122;24.746;2023-05-29T03:42:58;11.20;;;8.20;;
2674;SDS011;1347;42.122;24.746;2023-05-29T03:45:27;13.43;;;8.00;;
2674;SDS011;1347;42.122;24.746;2023-05-29T03:47:53;9.60;;;8.70;;
2674;SDS011;1347;42.122;24.746;2023-05-29T03:50:20;11.87;;;9.03;;
2674;SDS011;1347;42.122;24.746;2023-05-29T03:52:47;9.57;;;8.67;;
2674;SDS011;1347;42.122;24.746;2023-05-29T03:55:14;9.07;;;8.17;;
2674;SDS011;1347;42.122;24.746;2023-05-29T03:57:41;13.83;;;8.10;;
2674;SDS011;1347;42.122;24.746;2023-05-29T04:00:08;14.50;;;9.60;;
2674;SDS011;1347;42.122;24.746;2023-05-29T04:02:38;11.40;;;8.00;;
2674;SDS011;1347;42.122;24.746;2023-05-29T04:05:05;14.37;;;9.60;;
2674;SDS011;1347;42.122;24.746;2023-05-29T04:07:34;9.57;;;8.30;;
2674;SDS011;1347;42.122;24.746;2023-05-29T04:10:02;8.90;;;8.03;;
2674;SDS011;1347;42.122;24.746;2023-05-29T04:12:29;12.00;;;8.33;;
2674;SDS011;1347;42.122;24.746;2023-05-29T04:14:56;9.50;;;7.80;;
2674;SDS011;1347;42.122;24.746;2023-05-29T04:17:23;9.23;;;8.40;;
2674;SDS011;1347;42.122;24.746;2023-05-29T04:19:51;17.83;;;7.97;;
2674;SDS011;1347;42.122;24.746;2023-05-29T04:22:19;11.90;;;7.73;;
2674;SDS011;1347;42.122;24.746;2023-05-29T04:24:46;12.60;;;8.20;;
2674;SDS011;1347;42.122;24.746;2023-05-29T04:27:13;9.97;;;7.63;;
2674;SDS011;1347;42.122;24.746;2023-05-29T04:29:41;10.60;;;8.83;;
2674;SDS011;1347;42.122;24.746;2023-05-29T04:32:08;13.23;;;7.30;;
2674;SDS011;1347;42.122;24.746;2023-05-29T04:34:36;9.27;;;7.63;;
2674;SDS011;1347;42.122;24.746;2023-05-29T04:37:05;10.50;;;8.10;;
2674;SDS011;1347;42.122;24.746;2023-05-29T04:39:32;9.97;;;8.77;;
2674;SDS011;1347;42.122;24.746;2023-05-29T04:41:59;10.30;;;8.30;;
2674;SDS011;1347;42.122;24.746;2023-05-29T04:44:26;10.77;;;8.50;;
2674;SDS011;1347;42.122;24.746;2023-05-29T04:46:54;13.10;;;9.30;;
2674;SDS011;1347;42.122;24.746;2023-05-29T04:49:21;9.77;;;8.67;;
2674;SDS011;1347;42.122;24.746;2023-05-29T04:51:48;15.63;;;9.07;;
2674;SDS011;1347;42.122;24.746;2023-05-29T04:54:19;10.63;;;9.40;;
2674;SDS011;1347;42.122;24.746;2023-05-29T04:56:46;11.10;;;10.00;;
2674;SDS011;1347;42.122;24.746;2023-05-29T04:59:13;9.80;;;8.70;;
2674;SDS011;1347;42.122;24.746;2023-05-29T05:01:40;11.60;;;9.10;;
2674;SDS011;1347;42.122;24.746;2023-05-29T05:04:08;14.20;;;10.63;;
2674;SDS011;1347;42.122;24.746;2023-05-29T05:06:35;9.57;;;8.50;;
2674;SDS011;1347;42.122;24.746;2023-05-29T05:09:02;16.23;;;8.57;;
2674;SDS011;1347;42.122;24.746;2023-05-29T05:11:31;11.07;;;9.33;;
2674;SDS011;1347;42.122;24.746;2023-05-29T05:13:58;12.20;;;9.23;;
2674;SDS011;1347;42.122;24.746;2023-05-29T05:16:24;10.43;;;8.03;;
2674;SDS011;1347;42.122;24.746;2023-05-29T05:18:51;10.03;;;8.20;;
2674;SDS011;1347;42.122;24.746;2023-05-29T05:21:18;14.30;;;7.70;;
2674;SDS011;1347;42.122;24.746;2023-05-29T05:23:45;8.83;;;7.93;;
2674;SDS011;1347;42.122;24.746;2023-05-29T05:26:13;8.10;;;7.17;;
2674;SDS011;1347;42.122;24.746;2023-05-29T05:28:41;10.63;;;7.67;;
2674;SDS011;1347;42.122;24.746;2023-05-29T05:31:08;7.67;;;6.77;;
2674;SDS011;1347;42.122;24.746;2023-05-29T05:33:35;10.20;;;7.33;;
2674;SDS011;1347;42.122;24.746;2023-05-29T05:36:01;10.00;;;8.10;;
2674;SDS011;1347;42.122;24.746;2023-05-29T05:38:28;8.83;;;7.90;;
2674;SDS011;1347;42.122;24.746;2023-05-29T05:40:55;8.50;;;7.50;;
2674;SDS011;1347;42.122;24.746;2023-05-29T05:43:22;11.23;;;7.60;;
2674;SDS011;1347;42.122;24.746;2023-05-29T05:45:53;9.67;;;7.60;;
2674;SDS011;1347;42.122;24.746;2023-05-29T05:48:20;21.27;;;8.17;;
2674;SDS011;1347;42.122;24.746;2023-05-29T05:50:47;10.70;;;9.50;;
2674;SDS011;1347;42.122;24.746;2023-05-29T05:53:14;11.60;;;9.70;;
2674;SDS011;1347;42.122;24.746;2023-05-29T05:55:41;10.97;;;8.90;;
2674;SDS011;1347;42.122;24.746;2023-05-29T05:58:08;11.30;;;9.20;;
2674;SDS011;1347;42.122;24.746;2023-05-29T06:00:35;12.53;;;9.10;;
2674;SDS011;1347;42.122;24.746;2023-05-29T06:03:04;8.13;;;7.33;;
2674;SDS011;1347;42.122;24.746;2023-05-29T06:05:30;10.50;;;8.00;;
2674;SDS011;1347;42.122;24.746;2023-05-29T06:07:59;8.97;;;7.57;;
2674;SDS011;1347;42.122;24.746;2023-05-29T06:10:27;16.70;;;8.80;;
2674;SDS011;1347;42.122;24.746;2023-05-29T06:12:54;15.13;;;7.97;;
2674;SDS011;1347;42.122;24.746;2023-05-29T06:15:21;13.00;;;8.23;;
2674;SDS011;1347;42.122;24.746;2023-05-29T06:17:48;10.07;;;9.07;;
2674;SDS011;1347;42.122;24.746;2023-05-29T06:20:18;9.93;;;8.37;;
2674;SDS011;1347;42.122;24.746;2023-05-29T06:22:45;9.50;;;8.50;;
2674;SDS011;1347;42.122;24.746;2023-05-29T06:25:15;9.53;;;8.50;;
2674;SDS011;1347;42.122;24.746;2023-05-29T06:27:43;11.63;;;8.60;;
2674;SDS011;1347;42.122;24.746;2023-05-29T06:30:10;12.10;;;8.60;;
2674;SDS011;1347;42.122;24.746;2023-05-29T06:32:38;9.83;;;8.83;;
2674;SDS011;1347;42.122;24.746;2023-05-29T06:35:05;10.57;;;8.30;;
2674;SDS011;1347;42.122;24.746;2023-05-29T06:37:34;11.57;;;8.10;;
2674;SDS011;1347;42.122;24.746;2023-05-29T06:40:01;10.87;;;9.67;;
2674;SDS011;1347;42.122;24.746;2023-05-29T06:42:29;9.53;;;8.40;;
2674;SDS011;1347;42.122;24.746;2023-05-29T06:44:56;15.27;;;8.30;;
2674;SDS011;1347;42.122;24.746;2023-05-29T06:47:23;9.80;;;8.77;;
2674;SDS011;1347;42.122;24.746;2023-05-29T06:49:50;9.50;;;8.50;;
2674;SDS011;1347;42.122;24.746;2023-05-29T06:52:17;11.43;;;8.90;;
2674;SDS011;1347;42.122;24.746;2023-05-29T06:54:45;9.17;;;8.23;;
2674;SDS011;1347;42.122;24.746;2023-05-29T06:57:12;9.83;;;8.83;;
2674;SDS011;1347;42.122;24.746;2023-05-29T06:59:39;10.43;;;8.17;;
2674;SDS011;1347;42.122;24.746;2023-05-29T07:02:06;11.83;;;8.60;;
2674;SDS011;1347;42.122;24.746;2023-05-29T07:04:33;11.67;;;8.53;;
2674;SDS011;1347;42.122;24.746;2023-05-29T07:07:00;10.03;;;8.73;;
2674;SDS011;1347;42.122;24.746;2023-05-29T07:09:26;8.10;;;7.27;;
2674;SDS011;1347;42.122;24.746;2023-05-29T07:11:55;11.40;;;7.93;;
2674;SDS011;1347;42.122;24.746;2023-05-29T07:14:22;8.03;;;7.23;;
2674;SDS011;1347;42.122;24.746;2023-05-29T07:16:48;12.87;;;7.50;;
2674;SDS011;1347;42.122;24.746;2023-05-29T07:19:15;8.90;;;7.43;;
2674;SDS011;1347;42.122;24.746;2023-05-29T07:21:43;10.63;;;7.70;;
2674;SDS011;1347;42.122;24.746;2023-05-29T07:24:09;11.93;;;7.33;;
2674;SDS011;1347;42.122;24.746;2023-05-29T07:26:36;7.93;;;6.40;;
2674;SDS011;1347;42.122;24.746;2023-05-29T07:29:05;7.23;;;6.50;;
2674;SDS011;1347;42.122;24.746;2023-05-29T07:31:31;6.33;;;5.73;;
2674;SDS011;1347;42.122;24.746;2023-05-29T07:33:58;7.97;;;6.03;;
2674;SDS011;1347;42.122;24.746;2023-05-29T07:36:29;8.30;;;6.70;;
2674;SDS011;1347;42.122;24.746;2023-05-29T07:38:57;7.20;;;5.33;;
2674;SDS011;1347;42.122;24.746;2023-05-29T07:41:24;6.80;;;6.10;;
2674;SDS011;1347;42.122;24.746;2023-05-29T07:43:52;10.70;;;6.53;;
2674;SDS011;1347;42.122;24.746;2023-05-29T07:46:22;6.57;;;5.87;;
2674;SDS011;1347;42.122;24.746;2023-05-29T07:48:48;9.43;;;5.40;;
2674;SDS011;1347;42.122;24.746;2023-05-29T07:51:15;7.07;;;5.20;;
2674;SDS011;1347;42.122;24.746;2023-05-29T07:53:43;5.57;;;5.07;;
2674;SDS011;1347;42.122;24.746;2023-05-29T07:56:10;9.73;;;5.73;;
2674;SDS011;1347;42.122;24.746;2023-05-29T07:58:38;6.47;;;5.60;;
2674;SDS011;1347;42.122;24.746;2023-05-29T08:01:06;11.93;;;5.73;;
2674;SDS011;1347;42.122;24.746;2023-05-29T08:03:34;5.90;;;5.20;;
2674;SDS011;1347;42.122;24.746;2023-05-29T08:06:02;9.90;;;5.73;;
2674;SDS011;1347;42.122;24.746;2023-05-29T08:08:29;6.60;;;6.00;;
2674;SDS011;1347;42.122;24.746;2023-05-29T08:10:57;7.57;;;6.43;;
2674;SDS011;1347;42.122;24.746;2023-05-29T08:13:23;8.07;;;6.10;;
2674;SDS011;1347;42.122;24.746;2023-05-29T08:15:50;7.63;;;5.77;;
2674;SDS011;1347;42.122;24.746;2023-05-29T08:18:17;7.80;;;6.23;;
2674;SDS011;1347;42.122;24.746;2023-05-29T08:20:46;6.40;;;4.90;;
2674;SDS011;1347;42.122;24.746;2023-05-29T08:23:13;10.03;;;5.33;;
2674;SDS011;1347;42.122;24.746;2023-05-29T08:25:40;7.63;;;5.87;;
2674;SDS011;1347;42.122;24.746;2023-05-29T08:28:06;5.20;;;4.60;;
2674;SDS011;1347;42.122;24.746;2023-05-29T08:30:33;5.70;;;5.10;;
2674;SDS011;1347;42.122;24.746;2023-05-29T08:33:00;5.70;;;5.10;;
2674;SDS011;1347;42.122;24.746;2023-05-29T08:35:28;6.10;;;5.23;;
2674;SDS011;1347;42.122;24.746;2023-05-29T08:37:56;6.83;;;5.37;;
2674;SDS011;1347;42.122;24.746;2023-05-29T08:40:23;6.07;;;5.00;;
2674;SDS011;1347;42.122;24.746;2023-05-29T08:42:50;6.57;;;5.90;;
2674;SDS011;1347;42.122;24.746;2023-05-29T08:45:29;8.00;;;7.17;;
2674;SDS011;1347;42.122;24.746;2023-05-29T08:47:59;7.70;;;4.80;;
2674;SDS011;1347;42.122;24.746;2023-05-29T08:50:27;5.33;;;4.83;;
2674;SDS011;1347;42.122;24.746;2023-05-29T08:52:56;6.00;;;5.00;;
2674;SDS011;1347;42.122;24.746;2023-05-29T08:55:23;8.80;;;5.10;;
2674;SDS011;1347;42.122;24.746;2023-05-29T08:57:50;5.40;;;4.90;;
2674;SDS011;1347;42.122;24.746;2023-05-29T09:00:18;5.20;;;4.80;;
2674;SDS011;1347;42.122;24.746;2023-05-29T09:02:47;6.00;;;5.40;;
2674;SDS011;1347;42.122;24.746;2023-05-29T09:05:14;7.47;;;6.50;;
2674;SDS011;1347;42.122;24.746;2023-05-29T09:07:42;5.50;;;4.57;;
2674;SDS011;1347;42.122;24.746;2023-05-29T09:10:11;5.73;;;5.20;;
2674;SDS011;1347;42.122;24.746;2023-05-29T09:12:38;5.40;;;4.90;;
2674;SDS011;1347;42.122;24.746;2023-05-29T09:15:08;6.67;;;5.27;;
2674;SDS011;1347;42.122;24.746;2023-05-29T09:17:43;6.00;;;5.37;;
2674;SDS011;1347;42.122;24.746;2023-05-29T09:20:14;5.80;;;5.30;;
2674;SDS011;1347;42.122;24.746;2023-05-29T09:22:43;5.20;;;4.70;;
2674;SDS011;1347;42.122;24.746;2023-05-29T09:25:21;6.93;;;5.27;;
2674;SDS011;1347;42.122;24.746;2023-05-29T09:27:50;5.80;;;4.77;;
2674;SDS011;1347;42.122;24.746;2023-05-29T09:30:30;9.80;;;5.40;;
2674;SDS011;1347;42.122;24.746;2023-05-29T09:32:58;6.90;;;6.20;;
2674;SDS011;1347;42.122;24.746;2023-05-29T09:35:27;7.40;;;4.70;;
2674;SDS011;1347;42.122;24.746;2023-05-29T09:37:59;11.23;;;5.30;;
2674;SDS011;1347;42.122;24.746;2023-05-29T09:40:27;5.50;;;5.00;;
2674;SDS011;1347;42.122;24.746;2023-05-29T09:43:00;5.30;;;4.90;;
2674;SDS011;1347;42.122;24.746;2023-05-29T09:45:29;5.77;;;5.27;;
2674;SDS011;1347;42.122;24.746;2023-05-29T09:47:56;6.40;;;5.60;;
2674;SDS011;1347;42.122;24.746;2023-05-29T09:50:25;5.93;;;5.33;;
2674;SDS011;1347;42.122;24.746;2023-05-29T09:52:53;8.13;;;5.90;;
2674;SDS011;1347;42.122;24.746;2023-05-29T09:55:21;6.77;;;5.40;;
2674;SDS011;1347;42.122;24.746;2023-05-29T09:57:52;5.70;;;5.30;;
2674;SDS011;1347;42.122;24.746;2023-05-29T10:00:19;8.37;;;5.67;;
2674;SDS011;1347;42.122;24.746;2023-05-29T10:02:47;4.90;;;4.50;;
2674;SDS011;1347;42.122;24.746;2023-05-29T10:05:15;6.30;;;5.70;;
2674;SDS011;1347;42.122;24.746;2023-05-29T10:07:43;11.33;;;5.13;;
2674;SDS011;1347;42.122;24.746;2023-05-29T10:10:12;6.23;;;5.63;;
2674;SDS011;1347;42.122;24.746;2023-05-29T10:12:44;6.03;;;4.10;;
2674;SDS011;1347;42.122;24.746;2023-05-29T10:15:16;6.30;;;5.10;;
2674;SDS011;1347;42.122;24.746;2023-05-29T10:17:49;8.20;;;5.70;;
2674;SDS011;1347;42.122;24.746;2023-05-29T10:20:17;6.03;;;5.23;;
2674;SDS011;1347;42.122;24.746;2023-05-29T10:22:47;5.83;;;5.27;;
2674;SDS011;1347;42.122;24.746;2023-05-29T10:25:17;5.87;;;5.37;;
2674;SDS011;1347;42.122;24.746;2023-05-29T10:27:45;6.90;;;5.50;;
2674;SDS011;1347;42.122;24.746;2023-05-29T10:30:14;7.20;;;6.50;;
2674;SDS011;1347;42.122;24.746;2023-05-29T10:32:59;5.80;;;5.20;;
2674;SDS011;1347;42.122;24.746;2023-05-29T10:35:47;11.20;;;4.80;;
2674;SDS011;1347;42.122;24.746;2023-05-29T10:38:17;5.50;;;5.10;;
2674;SDS011;1347;42.122;24.746;2023-05-29T10:40:46;5.53;;;4.93;;
2674;SDS011;1347;42.122;24.746;2023-05-29T10:45:59;5.20;;;4.70;;
2674;SDS011;1347;42.122;24.746;2023-05-29T10:48:37;5.93;;;4.83;;
2674;SDS011;1347;42.122;24.746;2023-05-29T10:51:08;6.73;;;4.47;;
2674;SDS011;1347;42.122;24.746;2023-05-29T10:53:49;6.93;;;5.77;;
2674;SDS011;1347;42.122;24.746;2023-05-29T10:56:20;8.37;;;7.20;;
2674;SDS011;1347;42.122;24.746;2023-05-29T10:58:51;5.97;;;5.33;;
2674;SDS011;1347;42.122;24.746;2023-05-29T11:01:22;6.00;;;4.87;;
2674;SDS011;1347;42.122;24.746;2023-05-29T11:03:50;7.33;;;6.73;;
2674;SDS011;1347;42.122;24.746;2023-05-29T11:06:19;6.03;;;5.53;;
2674;SDS011;1347;42.122;24.746;2023-05-29T11:08:53;5.83;;;5.03;;
2674;SDS011;1347;42.122;24.746;2023-05-29T11:11:28;13.10;;;6.03;;
2674;SDS011;1347;42.122;24.746;2023-05-29T11:13:57;7.40;;;6.00;;
2674;SDS011;1347;42.122;24.746;2023-05-29T11:16:37;6.50;;;5.30;;
2674;SDS011;1347;42.122;24.746;2023-05-29T11:19:05;8.70;;;5.43;;
2674;SDS011;1347;42.122;24.746;2023-05-29T11:21:38;5.27;;;4.77;;
2674;SDS011;1347;42.122;24.746;2023-05-29T11:24:20;5.43;;;4.93;;
2674;SDS011;1347;42.122;24.746;2023-05-29T11:26:50;5.77;;;4.80;;
2674;SDS011;1347;42.122;24.746;2023-05-29T11:29:20;5.23;;;4.73;;
2674;SDS011;1347;42.122;24.746;2023-05-29T11:31:53;5.70;;;5.20;;
2674;SDS011;1347;42.122;24.746;2023-05-29T11:34:24;7.50;;;5.50;;
2674;SDS011;1347;42.122;24.746;2023-05-29T11:36:56;6.13;;;5.20;;
2674;SDS011;1347;42.122;24.746;2023-05-29T11:39:23;7.33;;;5.20;;
2674;SDS011;1347;42.122;24.746;2023-05-29T11:41:50;5.43;;;4.90;;
2674;SDS011;1347;42.122;24.746;2023-05-29T11:44:18;5.20;;;4.70;;
2674;SDS011;1347;42.122;24.746;2023-05-29T11:46:45;6.77;;;5.30;;
2674;SDS011;1347;42.122;24.746;2023-05-29T11:49:27;6.20;;;5.53;;
2674;SDS011;1347;42.122;24.746;2023-05-29T11:51:54;7.27;;;5.37;;
2674;SDS011;1347;42.122;24.746;2023-05-29T11:54:32;6.13;;;5.23;;
2674;SDS011;1347;42.122;24.746;2023-05-29T11:56:59;6.17;;;5.60;;
2674;SDS011;1347;42.122;24.746;2023-05-29T11:59:28;10.93;;;6.80;;
2674;SDS011;1347;42.122;24.746;2023-05-29T12:01:55;7.53;;;4.90;;
2674;SDS011;1347;42.122;24.746;2023-05-29T12:04:26;6.73;;;5.17;;
2674;SDS011;1347;42.122;24.746;2023-05-29T12:06:53;6.23;;;5.20;;
2674;SDS011;1347;42.122;24.746;2023-05-29T12:09:23;5.90;;;5.40;;
2674;SDS011;1347;42.122;24.746;2023-05-29T12:11:51;6.30;;;5.77;;
2674;SDS011;1347;42.122;24.746;2023-05-29T12:14:27;5.33;;;4.93;;
2674;SDS011;1347;42.122;24.746;2023-05-29T12:16:54;7.13;;;5.90;;
2674;SDS011;1347;42.122;24.746;2023-05-29T12:19:21;5.83;;;5.33;;
2674;SDS011;1347;42.122;24.746;2023-05-29T12:21:49;5.90;;;5.27;;
2674;SDS011;1347;42.122;24.746;2023-05-29T12:24:17;9.90;;;4.67;;
2674;SDS011;1347;42.122;24.746;2023-05-29T12:26:45;6.70;;;5.60;;
2674;SDS011;1347;42.122;24.746;2023-05-29T12:29:13;5.17;;;4.77;;
2674;SDS011;1347;42.122;24.746;2023-05-29T12:31:42;4.73;;;4.40;;
2674;SDS011;1347;42.122;24.746;2023-05-29T12:34:10;6.30;;;5.70;;
2674;SDS011;1347;42.122;24.746;2023-05-29T12:36:39;4.63;;;4.17;;
2674;SDS011;1347;42.122;24.746;2023-05-29T12:39:08;5.07;;;4.57;;
2674;SDS011;1347;42.122;24.746;2023-05-29T12:41:35;9.53;;;5.00;;
2674;SDS011;1347;42.122;24.746;2023-05-29T12:44:04;5.80;;;5.40;;
2674;SDS011;1347;42.122;24.746;2023-05-29T12:46:35;5.20;;;4.80;;
2674;SDS011;1347;42.122;24.746;2023-05-29T12:49:11;5.00;;;4.60;;
2674;SDS011;1347;42.122;24.746;2023-05-29T12:51:40;5.97;;;5.50;;
2674;SDS011;1347;42.122;24.746;2023-05-29T12:54:09;5.27;;;4.20;;
2674;SDS011;1347;42.122;24.746;2023-05-29T12:56:36;3.90;;;3.60;;
2674;SDS011;1347;42.122;24.746;2023-05-29T12:59:05;8.03;;;4.57;;
2674;SDS011;1347;42.122;24.746;2023-05-29T13:01:32;5.10;;;4.60;;
2674;SDS011;1347;42.122;24.746;2023-05-29T13:03:59;5.53;;;4.73;;
2674;SDS011;1347;42.122;24.746;2023-05-29T13:06:26;5.53;;;4.07;;
2674;SDS011;1347;42.122;24.746;2023-05-29T13:08:53;4.97;;;4.47;;
2674;SDS011;1347;42.122;24.746;2023-05-29T13:11:21;8.63;;;4.70;;
2674;SDS011;1347;42.122;24.746;2023-05-29T13:13:48;4.37;;;3.97;;
2674;SDS011;1347;42.122;24.746;2023-05-29T13:16:15;4.33;;;3.97;;
2674;SDS011;1347;42.122;24.746;2023-05-29T13:18:43;5.37;;;4.87;;
2674;SDS011;1347;42.122;24.746;2023-05-29T13:21:10;7.30;;;4.60;;
2674;SDS011;1347;42.122;24.746;2023-05-29T13:23:37;5.50;;;4.90;;
2674;SDS011;1347;42.122;24.746;2023-05-29T13:26:04;6.33;;;4.17;;
2674;SDS011;1347;42.122;24.746;2023-05-29T13:28:32;6.00;;;4.97;;
2674;SDS011;1347;42.122;24.746;2023-05-29T13:31:00;5.10;;;4.60;;
2674;SDS011;1347;42.122;24.746;2023-05-29T13:33:27;4.70;;;4.20;;
2674;SDS011;1347;42.122;24.746;2023-05-29T13:35:54;5.80;;;4.87;;
2674;SDS011;1347;42.122;24.746;2023-05-29T13:38:22;4.87;;;4.47;;
2674;SDS011;1347;42.122;24.746;2023-05-29T13:40:49;5.27;;;4.77;;
2674;SDS011;1347;42.122;24.746;2023-05-29T13:43:15;9.40;;;4.60;;
2674;SDS011;1347;42.122;24.746;2023-05-29T13:45:44;5.63;;;5.13;;
2674;SDS011;1347;42.122;24.746;2023-05-29T13:48:11;5.70;;;4.70;;
2674;SDS011;1347;42.122;24.746;2023-05-29T13:50:38;7.70;;;7.10;;
2674;SDS011;1347;42.122;24.746;2023-05-29T13:53:04;9.60;;;6.30;;
2674;SDS011;1347;42.122;24.746;2023-05-29T13:55:31;9.63;;;4.80;;
2674;SDS011;1347;42.122;24.746;2023-05-29T13:57:58;7.10;;;4.20;;
2674;SDS011;1347;42.122;24.746;2023-05-29T14:00:26;6.80;;;5.00;;
2674;SDS011;1347;42.122;24.746;2023-05-29T14:02:54;5.93;;;4.70;;
2674;SDS011;1347;42.122;24.746;2023-05-29T14:05:21;7.93;;;5.20;;
2674;SDS011;1347;42.122;24.746;2023-05-29T14:07:48;7.40;;;5.10;;
2674;SDS011;1347;42.122;24.746;2023-05-29T14:10:15;6.77;;;5.83;;
2674;SDS011;1347;42.122;24.746;2023-05-29T14:12:42;9.13;;;6.07;;
2674;SDS011;1347;42.122;24.746;2023-05-29T14:15:09;7.50;;;6.70;;
2674;SDS011;1347;42.122;24.746;2023-05-29T14:17:36;7.60;;;5.73;;
2674;SDS011;1347;42.122;24.746;2023-05-29T14:20:05;10.70;;;6.10;;
2674;SDS011;1347;42.122;24.746;2023-05-29T14:22:33;6.87;;;6.27;;
2674;SDS011;1347;42.122;24.746;2023-05-29T14:25:02;8.30;;;6.00;;
2674;SDS011;1347;42.122;24.746;2023-05-29T14:27:29;9.80;;;6.23;;
2674;SDS011;1347;42.122;24.746;2023-05-29T14:29:56;9.93;;;5.97;;
2674;SDS011;1347;42.122;24.746;2023-05-29T14:32:23;8.60;;;6.30;;
2674;SDS011;1347;42.122;24.746;2023-05-29T14:34:50;8.60;;;6.77;;
2674;SDS011;1347;42.122;24.746;2023-05-29T14:37:19;7.80;;;6.60;;
2674;SDS011;1347;42.122;24.746;2023-05-29T14:39:46;8.00;;;7.00;;
2674;SDS011;1347;42.122;24.746;2023-05-29T14:42:13;8.50;;;7.70;;
2674;SDS011;1347;42.122;24.746;2023-05-29T14:44:41;9.23;;;8.33;;
2674;SDS011;1347;42.122;24.746;2023-05-29T14:47:08;10.23;;;8.60;;
2674;SDS011;1347;42.122;24.746;2023-05-29T14:49:35;9.63;;;8.53;;
2674;SDS011;1347;42.122;24.746;2023-05-29T14:52:03;8.67;;;6.93;;
2674;SDS011;1347;42.122;24.746;2023-05-29T14:54:32;11.83;;;8.67;;
2674;SDS011;1347;42.122;24.746;2023-05-29T14:56:59;12.70;;;7.70;;
2674;SDS011;1347;42.122;24.746;2023-05-29T14:59:26;11.37;;;8.73;;
2674;SDS011;1347;42.122;24.746;2023-05-29T15:01:52;10.33;;;8.67;;
2674;SDS011;1347;42.122;24.746;2023-05-29T15:04:19;12.67;;;8.00;;
2674;SDS011;1347;42.122;24.746;2023-05-29T15:06:47;11.30;;;8.20;;
2674;SDS011;1347;42.122;24.746;2023-05-29T15:09:14;8.87;;;8.07;;